Terminal Aerodrome Forecast
Issued by NWS

Home | Current Version | Previous Version | Text Only | Print | Product List | Glossary On
Versions: 1 2 3 4 5 6 7 8 9 10 11 12 13 14 15 16 17 18 19
317
FTUS44 KBMX 010111 AAA
TAFMGM
TAF AMD
KMGM 010111Z 0101/0124 17010G15KT P6SM RA VCTS OVC035CB
     FM010400 22010KT P6SM -RA OVC050
     FM011400 25011KT P6SM BKN050
     FM011700 25017G22KT P6SM SKC=

USA.gov is the U.S. government's official web portal to all federal, state and local government web resources and services.